Hunter Army Air Field Savannah US
ICAO: KSVN
IATA: SVN
Category: Medium
Scheduled Services: No

Elevation: 41 ft
TransAlt. 18000 ft.

Airport Communications:
SAVANNAH APP/DEP:118.4
ATIS:32.312
CTAF:133.55
GND:121.8
USCG SAVANNAH AIR:34.5
ARNG OPS:38.15
PMSV METRO:30.9
PTD:126.2
TWR:46.7

KSVN Zoom In..

If you have problems with the map follow the link
https://www.worldairports.se/pages/airport.php?
ICAO=KSVN

Runways:

(A) RW 10 length 11375 ft width 200 ft
---- / hdg 96

(B) RW 28 length 11375 ft width 200 ft
ILS 109.50 / hdg 276

Location; KSVN
Day. 29 / Time. 09.56 Zulu
* Altimeter: 30.00
* Temperature: 04° c. 39.2°f.
* Wind from: 000° Speed 00 kn.
Dewpoint: 02° c.
Visibility: 10 Statute Miles.
Clouds: Clear (automated report).
Conditions: Mist.

KSVN 290956Z AUTO 00000KT 10SM BR CLR 04/02 A3000 RMK AO2 SLP162 T00350020 $


Wind - Calm.

 
 
jpsmedia worldairports.se 2020   terms of use